Time;durP1;ratioP1;P1;durP2;ratioP2;P2;SDS_P1;SDS_P2;PMS_P1;PMS_P2;Temp;Humidity;BMP_temperature;BMP_pressure;BME280_temperature;BME280_humidity;BME280_pressure;Samples;Min_cycle;Max_cycle;Signal;HPM_P1;HPM_P2
2021/10/30 00:01:56;;;;;;;11.47;8.27;;;;;;;;;;5003500;28;20581;-73
2021/10/30 00:04:21;;;;;;;9.93;7.90;;;;;;;;;;5003284;28;20621;-73
2021/10/30 00:06:46;;;;;;;10.60;8.40;;;;;;;;;;4999599;28;20566;-73
2021/10/30 00:09:11;;;;;;;16.90;10.60;;;;;;;;;;5001312;28;20194;-73
2021/10/30 00:11:37;;;;;;;12.07;9.27;;;;;;;;;;5002298;28;20808;-73
2021/10/30 00:14:02;;;;;;;13.77;9.00;;;;;;;;;;5003257;28;20823;-73
2021/10/30 00:16:28;;;;;;;12.20;9.50;;;;;;;;;;4983704;28;20534;-74
2021/10/30 00:18:53;;;;;;;9.43;8.43;;;;;;;;;;5002885;28;20210;-73
2021/10/30 00:21:18;;;;;;;10.67;9.03;;;;;;;;;;5002079;28;20424;-73
2021/10/30 00:23:43;;;;;;;8.67;7.63;;;;;;;;;;5003004;28;20183;-73
2021/10/30 00:26:09;;;;;;;9.23;8.10;;;;;;;;;;5002505;28;20180;-75
2021/10/30 00:28:34;;;;;;;12.50;8.60;;;;;;;;;;5000618;28;20206;-73
2021/10/30 00:30:59;;;;;;;12.13;8.87;;;;;;;;;;4983900;28;20182;-75
2021/10/30 00:33:24;;;;;;;12.17;8.83;;;;;;;;;;5000640;28;20628;-73
2021/10/30 00:35:49;;;;;;;9.67;8.67;;;;;;;;;;5000468;28;20182;-73
2021/10/30 00:38:14;;;;;;;13.47;9.97;;;;;;;;;;5001422;28;20269;-75
2021/10/30 00:40:40;;;;;;;9.33;8.33;;;;;;;;;;4999955;28;20706;-74
2021/10/30 00:43:05;;;;;;;11.17;9.20;;;;;;;;;;5002365;28;20640;-73
2021/10/30 00:45:30;;;;;;;16.27;10.27;;;;;;;;;;5003090;28;20209;-75
2021/10/30 00:47:55;;;;;;;12.37;9.80;;;;;;;;;;5014738;28;20237;-74
2021/10/30 00:50:21;;;;;;;12.57;9.43;;;;;;;;;;5000565;28;20302;-74
2021/10/30 00:52:46;;;;;;;10.37;9.27;;;;;;;;;;5002890;28;20187;-73
2021/10/30 00:55:12;;;;;;;12.77;10.43;;;;;;;;;;5000649;28;20532;-74
2021/10/30 00:57:38;;;;;;;12.30;10.60;;;;;;;;;;5001141;28;20236;-74
2021/10/30 01:00:04;;;;;;;12.07;10.67;;;;;;;;;;5002508;28;20213;-74
2021/10/30 01:02:29;;;;;;;13.17;9.70;;;;;;;;;;4997844;28;20214;-74
2021/10/30 01:04:54;;;;;;;12.70;10.77;;;;;;;;;;4999550;28;20270;-72
2021/10/30 01:07:20;;;;;;;14.67;10.63;;;;;;;;;;4998974;28;20537;-74
2021/10/30 01:09:46;;;;;;;13.23;10.40;;;;;;;;;;4982520;28;20230;-74
2021/10/30 01:12:11;;;;;;;12.13;10.80;;;;;;;;;;5010186;28;20296;-74
2021/10/30 01:14:37;;;;;;;11.73;10.53;;;;;;;;;;4999187;28;20178;-74
2021/10/30 01:17:04;;;;;;;11.23;9.17;;;;;;;;;;5012244;28;20212;-75
2021/10/30 01:19:30;;;;;;;10.30;8.53;;;;;;;;;;5001825;28;20223;-74
2021/10/30 01:21:56;;;;;;;11.40;9.80;;;;;;;;;;4999988;28;20213;-74
2021/10/30 01:24:21;;;;;;;12.73;9.33;;;;;;;;;;5000033;28;20179;-73
2021/10/30 01:26:47;;;;;;;11.80;10.50;;;;;;;;;;4982648;28;20721;-73
2021/10/30 01:29:12;;;;;;;13.33;9.97;;;;;;;;;;5000812;28;20694;-73
2021/10/30 01:31:37;;;;;;;12.00;8.30;;;;;;;;;;4998802;28;20193;-73
2021/10/30 01:34:04;;;;;;;9.75;8.75;;;;;;;;;;4999346;28;20191;-73
2021/10/30 01:36:31;;;;;;;9.90;8.40;;;;;;;;;;4999924;28;20183;-73
2021/10/30 01:38:56;;;;;;;9.57;8.57;;;;;;;;;;4981717;28;20573;-73
2021/10/30 01:41:22;;;;;;;11.15;8.57;;;;;;;;;;4999678;28;20199;-73
2021/10/30 01:43:47;;;;;;;11.27;8.60;;;;;;;;;;4998122;28;20932;-73
2021/10/30 01:46:12;;;;;;;9.80;8.05;;;;;;;;;;4999917;28;20262;-73
2021/10/30 01:48:38;;;;;;;10.48;8.32;;;;;;;;;;4999521;28;20588;-73
2021/10/30 01:51:04;;;;;;;9.37;8.37;;;;;;;;;;5000858;28;20179;-73
2021/10/30 01:53:29;;;;;;;13.82;9.60;;;;;;;;;;4999368;28;20220;-73
2021/10/30 01:55:55;;;;;;;9.23;8.23;;;;;;;;;;5013334;28;20222;-73
2021/10/30 01:58:20;;;;;;;9.88;8.27;;;;;;;;;;5011405;28;20614;-73
2021/10/30 02:00:46;;;;;;;10.55;8.75;;;;;;;;;;5012829;28;20233;-73
2021/10/30 02:03:11;;;;;;;9.63;8.50;;;;;;;;;;5008509;28;20781;-73
2021/10/30 02:05:36;;;;;;;10.83;9.33;;;;;;;;;;4980802;28;20178;-75
2021/10/30 02:08:02;;;;;;;10.23;8.00;;;;;;;;;;4980284;28;20241;-75
2021/10/30 02:10:27;;;;;;;9.50;8.27;;;;;;;;;;4999346;28;20190;-73
2021/10/30 02:12:53;;;;;;;9.13;8.20;;;;;;;;;;4997819;28;20179;-73
2021/10/30 02:15:18;;;;;;;11.03;8.70;;;;;;;;;;4998974;28;20730;-73
2021/10/30 02:17:43;;;;;;;10.67;8.27;;;;;;;;;;5000995;28;20203;-73
2021/10/30 02:20:09;;;;;;;13.20;7.87;;;;;;;;;;5036394;23;20319;-69
2021/10/30 02:22:35;;;;;;;13.80;8.60;;;;;;;;;;5007570;28;20717;-69
2021/10/30 02:25:00;;;;;;;11.73;7.97;;;;;;;;;;5009813;28;20225;-71
2021/10/30 02:27:25;;;;;;;9.80;8.80;;;;;;;;;;5012911;28;20194;-69
2021/10/30 02:29:51;;;;;;;10.93;9.50;;;;;;;;;;5007871;28;20197;-71
2021/10/30 02:32:16;;;;;;;10.70;9.10;;;;;;;;;;5006950;28;20561;-71
2021/10/30 02:34:41;;;;;;;9.80;8.80;;;;;;;;;;5006173;28;20182;-69
2021/10/30 02:37:07;;;;;;;12.30;9.50;;;;;;;;;;5008362;28;20248;-71
2021/10/30 02:39:32;;;;;;;12.87;10.40;;;;;;;;;;5009926;28;20327;-70
2021/10/30 02:41:57;;;;;;;15.77;11.07;;;;;;;;;;5007834;28;20297;-70
2021/10/30 02:44:23;;;;;;;14.77;10.80;;;;;;;;;;5010088;28;20194;-69
2021/10/30 02:46:48;;;;;;;15.63;11.00;;;;;;;;;;5008513;28;20178;-70
2021/10/30 02:49:13;;;;;;;12.40;10.83;;;;;;;;;;5007980;28;21835;-71
2021/10/30 02:51:39;;;;;;;13.80;10.33;;;;;;;;;;5020537;28;20182;-71
2021/10/30 02:54:04;;;;;;;14.37;11.50;;;;;;;;;;5009014;28;20178;-69
2021/10/30 02:56:29;;;;;;;11.97;10.77;;;;;;;;;;5007974;28;20725;-71
2021/10/30 02:58:54;;;;;;;13.10;11.43;;;;;;;;;;5013708;28;20205;-69
2021/10/30 03:01:19;;;;;;;13.20;11.70;;;;;;;;;;5008096;28;20293;-71
2021/10/30 03:03:45;;;;;;;12.43;10.40;;;;;;;;;;5007839;28;20179;-71
2021/10/30 03:06:10;;;;;;;11.03;9.90;;;;;;;;;;5009740;28;20186;-70
2021/10/30 03:08:35;;;;;;;12.10;10.17;;;;;;;;;;5007841;28;20209;-71
2021/10/30 03:11:01;;;;;;;11.63;9.97;;;;;;;;;;5008182;28;20186;-70
2021/10/30 03:13:26;;;;;;;15.70;10.73;;;;;;;;;;5008780;28;20247;-70
2021/10/30 03:15:52;;;;;;;13.20;10.20;;;;;;;;;;5008353;28;20632;-70
2021/10/30 03:18:17;;;;;;;11.23;9.03;;;;;;;;;;5014108;28;20219;-72
2021/10/30 03:20:42;;;;;;;12.33;9.97;;;;;;;;;;5009554;28;20205;-70
2021/10/30 03:23:08;;;;;;;13.57;10.20;;;;;;;;;;5007673;28;20245;-71
2021/10/30 03:25:34;;;;;;;11.40;9.20;;;;;;;;;;5009171;28;20326;-71
2021/10/30 03:28:00;;;;;;;11.80;9.60;;;;;;;;;;5011837;28;20186;-71
2021/10/30 03:30:25;;;;;;;11.87;8.73;;;;;;;;;;5007611;28;20203;-71
2021/10/30 03:32:50;;;;;;;11.27;9.50;;;;;;;;;;5009979;28;20273;-71
2021/10/30 03:35:15;;;;;;;12.20;9.43;;;;;;;;;;5007310;28;20213;-71
2021/10/30 03:37:41;;;;;;;11.70;9.43;;;;;;;;;;4991069;28;20182;-71
2021/10/30 03:40:07;;;;;;;11.60;9.10;;;;;;;;;;5006180;28;20251;-71
2021/10/30 03:42:33;;;;;;;10.67;9.43;;;;;;;;;;5006230;28;20279;-71
2021/10/30 03:44:59;;;;;;;10.73;9.17;;;;;;;;;;5007428;28;20277;-71
2021/10/30 03:47:24;;;;;;;11.47;9.40;;;;;;;;;;4993913;28;21087;-70
2021/10/30 03:49:49;;;;;;;12.40;10.13;;;;;;;;;;5007889;28;20195;-69
2021/10/30 03:52:15;;;;;;;9.97;8.97;;;;;;;;;;5011579;28;20197;-71
2021/10/30 03:54:40;;;;;;;14.20;9.47;;;;;;;;;;5019836;28;20701;-70
2021/10/30 03:57:06;;;;;;;9.67;8.60;;;;;;;;;;5014840;28;20194;-71
2021/10/30 03:59:31;;;;;;;10.97;8.23;;;;;;;;;;5029167;28;20251;-70
2021/10/30 04:01:57;;;;;;;11.43;9.93;;;;;;;;;;5012688;28;20211;-71
2021/10/30 04:04:22;;;;;;;10.17;9.13;;;;;;;;;;5009762;28;20702;-71
2021/10/30 04:06:47;;;;;;;10.07;8.43;;;;;;;;;;5008548;28;20175;-71
2021/10/30 04:09:12;;;;;;;11.85;9.40;;;;;;;;;;5008376;28;20702;-71
2021/10/30 04:11:38;;;;;;;10.03;8.90;;;;;;;;;;5008820;28;20194;-71
2021/10/30 04:14:03;;;;;;;15.10;8.93;;;;;;;;;;5010055;28;20334;-70
2021/10/30 04:16:29;;;;;;;12.43;9.20;;;;;;;;;;5008830;28;20186;-70
2021/10/30 04:18:57;;;;;;;10.95;9.85;;;;;;;;;;4997828;28;20229;-71
2021/10/30 04:21:22;;;;;;;10.20;9.02;;;;;;;;;;5008021;28;20283;-70
2021/10/30 04:23:47;;;;;;;11.30;8.48;;;;;;;;;;5009729;28;20190;-71
2021/10/30 04:26:12;;;;;;;11.98;9.35;;;;;;;;;;4989973;28;20235;-70
2021/10/30 04:28:37;;;;;;;10.38;9.20;;;;;;;;;;5016173;28;20194;-71
2021/10/30 04:31:05;;;;;;;10.55;9.15;;;;;;;;;;4993197;28;20178;-71
2021/10/30 04:33:31;;;;;;;11.20;10.05;;;;;;;;;;5010924;28;20183;-71
2021/10/30 04:35:56;;;;;;;10.75;9.45;;;;;;;;;;5011461;28;20529;-71
2021/10/30 04:38:22;;;;;;;10.02;8.95;;;;;;;;;;5008688;28;20186;-71
2021/10/30 04:40:48;;;;;;;9.85;8.85;;;;;;;;;;4995688;28;20189;-71
2021/10/30 04:43:13;;;;;;;11.95;9.85;;;;;;;;;;5011619;28;20877;-72
2021/10/30 04:45:38;;;;;;;13.85;9.63;;;;;;;;;;4995177;28;20811;-70
2021/10/30 04:48:04;;;;;;;12.70;10.45;;;;;;;;;;5012968;28;20199;-72
2021/10/30 04:50:29;;;;;;;10.93;9.38;;;;;;;;;;4999201;28;20198;-70
2021/10/30 04:52:54;;;;;;;10.82;9.77;;;;;;;;;;5012304;28;20178;-71
2021/10/30 04:55:19;;;;;;;13.23;9.95;;;;;;;;;;5010843;28;20273;-72
2021/10/30 04:57:44;;;;;;;11.27;10.07;;;;;;;;;;5015065;28;20197;-71
2021/10/30 05:00:10;;;;;;;12.35;10.95;;;;;;;;;;5017275;28;20206;-70
2021/10/30 05:02:35;;;;;;;14.70;10.88;;;;;;;;;;5010353;28;20293;-72
2021/10/30 05:05:00;;;;;;;13.07;10.65;;;;;;;;;;5008512;28;21655;-72
2021/10/30 05:07:25;;;;;;;13.02;11.57;;;;;;;;;;5012078;28;20181;-72
2021/10/30 05:09:51;;;;;;;12.68;10.52;;;;;;;;;;5017872;28;20202;-72
2021/10/30 05:12:16;;;;;;;15.40;10.68;;;;;;;;;;5013245;28;20186;-72
2021/10/30 05:14:41;;;;;;;12.18;10.55;;;;;;;;;;5010696;28;20615;-71
2021/10/30 05:17:06;;;;;;;12.13;10.50;;;;;;;;;;5011262;28;20647;-70
2021/10/30 05:19:31;;;;;;;13.13;11.82;;;;;;;;;;5010797;28;20214;-71
2021/10/30 05:21:57;;;;;;;14.27;11.43;;;;;;;;;;5009828;28;20854;-70
2021/10/30 05:24:22;;;;;;;15.43;11.13;;;;;;;;;;5007654;28;20201;-70
2021/10/30 05:26:47;;;;;;;11.48;10.02;;;;;;;;;;5010150;28;20289;-72
2021/10/30 05:29:12;;;;;;;11.93;9.48;;;;;;;;;;5009916;28;20249;-71
2021/10/30 05:31:37;;;;;;;11.77;9.83;;;;;;;;;;5012171;28;20178;-72
2021/10/30 05:34:03;;;;;;;11.55;10.18;;;;;;;;;;5010745;28;20182;-72
2021/10/30 05:36:30;;;;;;;15.57;10.97;;;;;;;;;;5010973;28;20272;-71
2021/10/30 05:38:56;;;;;;;11.15;9.70;;;;;;;;;;5013477;28;20749;-72
2021/10/30 05:41:21;;;;;;;11.75;9.45;;;;;;;;;;5011122;28;20198;-71
2021/10/30 05:43:47;;;;;;;13.65;9.57;;;;;;;;;;5015123;28;20178;-71
2021/10/30 05:46:12;;;;;;;10.55;9.45;;;;;;;;;;5008620;28;20194;-72
2021/10/30 05:48:38;;;;;;;11.73;10.53;;;;;;;;;;4992728;28;20311;-70
2021/10/30 05:51:05;;;;;;;11.10;9.65;;;;;;;;;;5010862;28;20278;-72
2021/10/30 05:53:30;;;;;;;12.20;9.03;;;;;;;;;;5012351;28;20174;-70
2021/10/30 05:55:55;;;;;;;11.85;10.63;;;;;;;;;;5009665;28;20175;-72
2021/10/30 05:58:20;;;;;;;14.45;10.40;;;;;;;;;;5012129;28;20170;-72
2021/10/30 06:00:45;;;;;;;11.55;9.07;;;;;;;;;;5010658;28;20284;-72
2021/10/30 06:03:11;;;;;;;10.63;9.63;;;;;;;;;;4992033;28;20198;-73
2021/10/30 06:05:36;;;;;;;13.48;9.95;;;;;;;;;;5010045;28;20297;-71
2021/10/30 06:08:01;;;;;;;13.52;9.57;;;;;;;;;;5010272;28;20186;-72
2021/10/30 06:10:28;;;;;;;10.88;8.73;;;;;;;;;;5009052;28;20210;-71
2021/10/30 06:12:54;;;;;;;13.25;9.18;;;;;;;;;;5010064;28;21242;-71
2021/10/30 06:15:19;;;;;;;11.50;10.30;;;;;;;;;;5007719;28;20257;-70
2021/10/30 06:17:44;;;;;;;10.55;8.25;;;;;;;;;;5016127;28;20178;-71
2021/10/30 06:20:09;;;;;;;11.25;9.40;;;;;;;;;;5018092;28;20223;-72
2021/10/30 06:22:37;;;;;;;9.65;8.60;;;;;;;;;;5024102;28;20638;-74
2021/10/30 06:25:02;;;;;;;12.10;8.90;;;;;;;;;;5017464;28;20174;-71
2021/10/30 06:27:29;;;;;;;8.65;7.85;;;;;;;;;;5018997;28;20174;-72
2021/10/30 06:29:54;;;;;;;11.60;8.02;;;;;;;;;;5004359;28;20209;-71
2021/10/30 06:32:19;;;;;;;9.68;8.65;;;;;;;;;;5013220;28;20189;-70
2021/10/30 06:34:44;;;;;;;9.27;8.38;;;;;;;;;;5009523;28;20599;-71
2021/10/30 06:37:09;;;;;;;9.85;7.82;;;;;;;;;;5011112;28;20218;-72
2021/10/30 06:39:34;;;;;;;12.57;8.57;;;;;;;;;;5010255;28;21563;-72
2021/10/30 06:42:00;;;;;;;9.05;7.85;;;;;;;;;;5006860;28;20489;-72
2021/10/30 06:44:25;;;;;;;10.88;9.05;;;;;;;;;;5010103;28;20644;-72
2021/10/30 06:46:52;;;;;;;9.80;8.60;;;;;;;;;;5008342;28;20257;-72
2021/10/30 06:49:17;;;;;;;9.23;8.07;;;;;;;;;;5008782;28;20274;-71
2021/10/30 06:51:43;;;;;;;10.85;8.32;;;;;;;;;;5009706;28;20962;-73
2021/10/30 06:54:09;;;;;;;10.77;7.53;;;;;;;;;;5017711;28;20269;-72
2021/10/30 06:56:35;;;;;;;13.27;8.00;;;;;;;;;;5010278;28;20209;-73
2021/10/30 06:59:02;;;;;;;11.23;9.00;;;;;;;;;;5011216;28;20213;-73
2021/10/30 07:01:27;;;;;;;10.68;8.60;;;;;;;;;;5009762;28;20865;-73
2021/10/30 07:03:52;;;;;;;11.02;8.73;;;;;;;;;;5005874;28;20178;-71
2021/10/30 07:06:17;;;;;;;10.32;8.48;;;;;;;;;;5009451;28;20678;-72
2021/10/30 07:08:42;;;;;;;12.35;8.57;;;;;;;;;;5009719;28;20220;-72
2021/10/30 07:11:08;;;;;;;10.75;8.70;;;;;;;;;;5013375;28;20178;-72
2021/10/30 07:13:33;;;;;;;12.93;8.40;;;;;;;;;;4998231;28;20182;-72
2021/10/30 07:15:58;;;;;;;10.80;8.60;;;;;;;;;;5014392;28;20603;-71
2021/10/30 07:18:23;;;;;;;13.80;9.43;;;;;;;;;;5018425;28;20711;-72
2021/10/30 07:20:49;;;;;;;10.00;8.35;;;;;;;;;;5032246;28;20190;-72
2021/10/30 07:23:16;;;;;;;12.13;8.80;;;;;;;;;;5024630;28;20214;-72
2021/10/30 07:25:41;;;;;;;11.05;8.60;;;;;;;;;;5012947;28;20186;-71
2021/10/30 07:28:06;;;;;;;12.15;8.45;;;;;;;;;;5018824;28;20570;-72
2021/10/30 07:30:31;;;;;;;9.40;8.40;;;;;;;;;;5008372;28;20239;-73
2021/10/30 07:32:57;;;;;;;9.75;7.95;;;;;;;;;;5007663;28;20214;-73
2021/10/30 07:35:24;;;;;;;11.02;8.38;;;;;;;;;;5009122;28;20186;-72
2021/10/30 07:37:49;;;;;;;9.70;8.65;;;;;;;;;;5010572;28;20194;-72
2021/10/30 07:40:14;;;;;;;12.82;9.25;;;;;;;;;;5006935;28;20206;-73
2021/10/30 07:42:41;;;;;;;11.85;7.78;;;;;;;;;;5019385;28;20318;-73
2021/10/30 07:45:06;;;;;;;9.75;8.07;;;;;;;;;;5015634;28;20183;-72
2021/10/30 07:47:32;;;;;;;10.63;8.53;;;;;;;;;;5005947;28;20257;-72
2021/10/30 07:49:58;;;;;;;11.48;7.57;;;;;;;;;;4993290;28;20295;-73
2021/10/30 07:52:24;;;;;;;9.57;8.13;;;;;;;;;;5010564;28;20205;-73
2021/10/30 07:54:49;;;;;;;12.90;9.13;;;;;;;;;;5014721;28;20185;-73
2021/10/30 07:57:14;;;;;;;12.37;8.90;;;;;;;;;;5011551;28;20174;-72
2021/10/30 07:59:40;;;;;;;9.95;8.32;;;;;;;;;;5014603;28;20272;-73
2021/10/30 08:02:06;;;;;;;10.18;8.07;;;;;;;;;;5013478;28;20218;-73
2021/10/30 08:04:32;;;;;;;12.73;7.30;;;;;;;;;;5014126;28;20186;-72
2021/10/30 08:06:58;;;;;;;8.30;7.15;;;;;;;;;;5010351;28;20262;-72
2021/10/30 08:09:23;;;;;;;9.13;7.65;;;;;;;;;;5013099;28;20651;-74
2021/10/30 08:11:48;;;;;;;12.47;7.80;;;;;;;;;;5013929;28;20197;-74
2021/10/30 08:14:13;;;;;;;10.40;7.65;;;;;;;;;;4994884;28;20197;-72
2021/10/30 08:16:39;;;;;;;9.20;7.27;;;;;;;;;;5011250;28;20696;-72
2021/10/30 08:19:04;;;;;;;8.82;7.55;;;;;;;;;;5029155;23;20222;-75
2021/10/30 08:21:29;;;;;;;12.70;7.20;;;;;;;;;;5028953;28;20594;-75
2021/10/30 08:23:55;;;;;;;8.02;7.22;;;;;;;;;;5013424;28;20337;-75
2021/10/30 08:26:20;;;;;;;8.45;7.10;;;;;;;;;;5033803;28;20262;-75
2021/10/30 08:28:46;;;;;;;9.48;6.38;;;;;;;;;;5030734;28;20453;-75
2021/10/30 08:31:18;;;;;;;8.10;6.27;;;;;;;;;;4995051;28;20281;-75
2021/10/30 08:33:44;;;;;;;9.63;6.97;;;;;;;;;;5011508;28;20189;-75
2021/10/30 08:36:09;;;;;;;7.45;5.80;;;;;;;;;;5009472;28;20190;-74
2021/10/30 08:38:35;;;;;;;6.05;5.22;;;;;;;;;;5006831;28;20312;-77
2021/10/30 08:41:01;;;;;;;7.82;5.95;;;;;;;;;;5008073;28;20214;-74
2021/10/30 08:43:27;;;;;;;6.88;5.45;;;;;;;;;;5012640;28;20840;-74
2021/10/30 08:45:53;;;;;;;7.82;5.85;;;;;;;;;;5012067;28;20186;-74
2021/10/30 08:48:19;;;;;;;7.85;6.00;;;;;;;;;;5011914;28;20670;-74
2021/10/30 08:50:44;;;;;;;9.70;6.38;;;;;;;;;;5015697;28;20288;-74
2021/10/30 08:53:09;;;;;;;6.57;5.37;;;;;;;;;;5014833;28;20186;-75
2021/10/30 08:55:35;;;;;;;8.60;7.03;;;;;;;;;;5013159;28;20636;-74
2021/10/30 08:58:07;;;;;;;8.33;5.87;;;;;;;;;;5011748;28;20249;-74
2021/10/30 09:00:35;;;;;;;6.50;5.90;;;;;;;;;;5003221;28;20194;-74
2021/10/30 09:03:03;;;;;;;6.35;5.75;;;;;;;;;;5012694;28;20218;-74
2021/10/30 09:05:31;;;;;;;7.32;6.53;;;;;;;;;;5013528;28;20232;-74
2021/10/30 09:07:57;;;;;;;7.68;5.90;;;;;;;;;;4996528;28;20178;-74
2021/10/30 09:10:28;;;;;;;7.78;6.22;;;;;;;;;;5011472;28;21572;-74
2021/10/30 09:12:58;;;;;;;8.20;5.85;;;;;;;;;;5011835;28;20191;-73
2021/10/30 09:15:37;;;;;;;6.10;5.50;;;;;;;;;;5008505;28;20178;-73
2021/10/30 09:18:04;;;;;;;7.10;5.80;;;;;;;;;;5012106;28;20194;-75
2021/10/30 09:20:30;;;;;;;8.13;6.03;;;;;;;;;;5012337;28;20214;-76
2021/10/30 09:22:55;;;;;;;7.95;5.90;;;;;;;;;;5010902;28;20277;-75
2021/10/30 09:25:21;;;;;;;7.53;6.53;;;;;;;;;;5010477;28;20186;-75
2021/10/30 09:27:47;;;;;;;7.93;6.35;;;;;;;;;;4998696;28;20182;-75
2021/10/30 09:30:32;;;;;;;8.95;6.00;;;;;;;;;;5010549;28;20206;-74
2021/10/30 09:32:59;;;;;;;7.70;5.90;;;;;;;;;;5010517;28;20197;-74
2021/10/30 09:35:29;;;;;;;8.73;5.38;;;;;;;;;;5011052;28;20533;-75
2021/10/30 09:37:55;;;;;;;7.45;5.97;;;;;;;;;;5009767;28;20237;-75
2021/10/30 09:40:22;;;;;;;6.55;5.22;;;;;;;;;;4993700;28;20683;-75
2021/10/30 09:43:03;;;;;;;6.07;5.47;;;;;;;;;;5008711;28;20210;-75
2021/10/30 09:45:28;;;;;;;7.25;5.68;;;;;;;;;;5012503;28;20269;-74
2021/10/30 09:48:00;;;;;;;6.25;5.25;;;;;;;;;;5011490;28;20948;-75
2021/10/30 09:50:27;;;;;;;8.20;6.43;;;;;;;;;;5006661;28;20198;-76
2021/10/30 09:52:54;;;;;;;7.75;5.70;;;;;;;;;;5011762;28;20581;-75
2021/10/30 09:55:23;;;;;;;8.57;5.55;;;;;;;;;;5003738;28;20186;-76
2021/10/30 09:57:56;;;;;;;7.72;6.13;;;;;;;;;;5011881;28;20187;-75
2021/10/30 10:00:24;;;;;;;9.15;6.13;;;;;;;;;;5009734;28;20400;-75
2021/10/30 10:02:50;;;;;;;8.68;6.35;;;;;;;;;;4994794;28;20218;-76
2021/10/30 10:05:18;;;;;;;9.15;5.97;;;;;;;;;;4989607;28;20253;-76
2021/10/30 10:07:43;;;;;;;8.52;6.57;;;;;;;;;;5008495;28;20296;-76
2021/10/30 10:10:09;;;;;;;9.55;6.55;;;;;;;;;;5009200;28;20285;-78
2021/10/30 10:12:34;;;;;;;7.03;6.25;;;;;;;;;;5007566;28;20215;-77
2021/10/30 10:15:01;;;;;;;6.88;6.18;;;;;;;;;;5009564;28;20265;-73
2021/10/30 10:17:26;;;;;;;7.45;6.40;;;;;;;;;;5009965;28;20272;-76
2021/10/30 10:19:51;;;;;;;9.07;6.47;;;;;;;;;;5013333;28;20715;-77
2021/10/30 10:22:17;;;;;;;6.95;6.25;;;;;;;;;;5006509;28;20255;-76
2021/10/30 10:24:42;;;;;;;7.22;6.00;;;;;;;;;;4991215;28;20178;-76
2021/10/30 10:27:08;;;;;;;7.38;5.72;;;;;;;;;;5012023;28;20731;-75
2021/10/30 10:29:40;;;;;;;7.18;6.00;;;;;;;;;;5010074;28;20945;-75
2021/10/30 10:32:25;;;;;;;11.15;5.93;;;;;;;;;;5005267;28;20602;-75
2021/10/30 10:34:51;;;;;;;6.28;5.30;;;;;;;;;;5008981;28;20193;-75
2021/10/30 10:37:17;;;;;;;8.77;5.75;;;;;;;;;;5009213;28;20190;-76
2021/10/30 10:39:50;;;;;;;7.13;5.63;;;;;;;;;;5009691;28;20287;-76
2021/10/30 10:42:16;;;;;;;6.13;5.47;;;;;;;;;;5009752;28;20206;-75
2021/10/30 10:44:41;;;;;;;6.63;5.72;;;;;;;;;;4992346;28;21549;-75
2021/10/30 10:47:30;;;;;;;6.93;5.18;;;;;;;;;;4993352;28;20959;-76
2021/10/30 10:50:23;;;;;;;9.10;5.82;;;;;;;;;;4985875;28;20206;-74
2021/10/30 10:53:01;;;;;;;6.50;5.80;;;;;;;;;;5003967;28;20679;-74
2021/10/30 10:55:27;;;;;;;5.47;4.60;;;;;;;;;;4992339;28;20178;-76
2021/10/30 10:57:58;;;;;;;7.25;5.05;;;;;;;;;;5011704;28;20675;-75
2021/10/30 11:00:24;;;;;;;8.20;4.55;;;;;;;;;;4994412;28;20214;-75
2021/10/30 11:02:49;;;;;;;5.85;4.55;;;;;;;;;;5008523;28;20225;-75
2021/10/30 11:05:21;;;;;;;5.70;4.88;;;;;;;;;;5008744;28;20312;-75
2021/10/30 11:07:49;;;;;;;5.97;4.68;;;;;;;;;;4994098;28;20428;-75
2021/10/30 11:10:14;;;;;;;4.93;4.18;;;;;;;;;;5031676;28;20202;-75
2021/10/30 11:12:43;;;;;;;6.00;4.82;;;;;;;;;;5023547;28;20562;-74
2021/10/30 11:15:09;;;;;;;5.63;4.72;;;;;;;;;;5020670;28;20489;-75
2021/10/30 11:17:46;;;;;;;10.65;4.72;;;;;;;;;;4992391;28;20190;-75
2021/10/30 11:20:13;;;;;;;5.68;4.32;;;;;;;;;;5008120;28;20222;-75
2021/10/30 11:23:01;;;;;;;4.90;4.18;;;;;;;;;;5006524;28;20202;-75
2021/10/30 11:25:29;;;;;;;5.70;4.30;;;;;;;;;;5006309;28;21100;-74
2021/10/30 11:27:55;;;;;;;4.90;3.95;;;;;;;;;;5011043;28;20244;-75
2021/10/30 11:30:50;;;;;;;4.68;4.20;;;;;;;;;;5007455;28;20691;-75
2021/10/30 11:33:28;;;;;;;4.38;3.97;;;;;;;;;;4996925;28;20186;-75
2021/10/30 11:35:56;;;;;;;4.38;3.97;;;;;;;;;;5009876;28;20186;-75
2021/10/30 11:38:22;;;;;;;5.30;4.53;;;;;;;;;;5012046;28;20190;-75
2021/10/30 11:40:52;;;;;;;6.45;3.65;;;;;;;;;;4995914;28;20201;-75
2021/10/30 11:43:17;;;;;;;6.93;4.35;;;;;;;;;;5011556;28;20333;-76
2021/10/30 11:45:42;;;;;;;5.10;4.60;;;;;;;;;;5011151;28;20208;-73
2021/10/30 11:48:07;;;;;;;4.07;3.60;;;;;;;;;;4997153;28;20667;-74
2021/10/30 11:50:32;;;;;;;4.38;3.47;;;;;;;;;;5011449;28;20229;-74
2021/10/30 11:53:00;;;;;;;4.75;3.80;;;;;;;;;;5013791;28;20232;-74
2021/10/30 11:55:26;;;;;;;4.45;3.40;;;;;;;;;;5012634;28;20186;-75
2021/10/30 11:57:51;;;;;;;3.83;3.47;;;;;;;;;;4996476;28;20181;-75
2021/10/30 12:00:20;;;;;;;5.00;3.70;;;;;;;;;;5012849;28;20622;-74
2021/10/30 12:03:00;;;;;;;4.47;3.78;;;;;;;;;;5013697;28;20863;-75
2021/10/30 12:05:31;;;;;;;5.00;4.50;;;;;;;;;;5011605;28;20228;-75
2021/10/30 12:07:57;;;;;;;5.20;3.78;;;;;;;;;;4993384;28;20182;-75
2021/10/30 12:10:22;;;;;;;3.72;3.38;;;;;;;;;;5017939;28;20198;-75
2021/10/30 12:12:48;;;;;;;5.82;3.38;;;;;;;;;;5013903;28;20604;-75
2021/10/30 12:15:13;;;;;;;4.00;3.42;;;;;;;;;;5012552;28;20186;-75
2021/10/30 12:17:39;;;;;;;4.75;3.40;;;;;;;;;;4996569;28;20190;-75
2021/10/30 12:20:08;;;;;;;4.00;3.58;;;;;;;;;;5014422;28;20225;-76
2021/10/30 12:22:37;;;;;;;5.82;3.72;;;;;;;;;;5011924;28;21578;-75
2021/10/30 12:25:04;;;;;;;4.15;2.97;;;;;;;;;;5011831;28;20196;-75
2021/10/30 12:27:30;;;;;;;3.80;3.22;;;;;;;;;;5018566;28;20217;-75
2021/10/30 12:30:04;;;;;;;3.50;3.08;;;;;;;;;;4996246;28;20750;-76
2021/10/30 12:32:35;;;;;;;3.92;3.40;;;;;;;;;;5015725;28;20190;-75
2021/10/30 12:35:01;;;;;;;3.85;3.10;;;;;;;;;;5025474;28;20182;-75
2021/10/30 12:37:31;;;;;;;8.48;3.70;;;;;;;;;;5012430;28;20186;-76
2021/10/30 12:39:57;;;;;;;4.40;3.15;;;;;;;;;;5010239;28;20328;-75
2021/10/30 12:42:23;;;;;;;4.55;3.25;;;;;;;;;;5011846;28;20297;-75
2021/10/30 12:44:49;;;;;;;5.22;2.63;;;;;;;;;;4998915;28;21045;-75
2021/10/30 12:47:14;;;;;;;3.38;3.08;;;;;;;;;;5010639;28;20243;-74
2021/10/30 12:49:42;;;;;;;3.22;2.78;;;;;;;;;;5010312;28;20202;-74
2021/10/30 12:52:09;;;;;;;3.15;2.85;;;;;;;;;;5013449;28;20206;-73
2021/10/30 12:54:35;;;;;;;3.05;2.75;;;;;;;;;;5011532;28;20291;-73
2021/10/30 12:57:00;;;;;;;4.03;2.92;;;;;;;;;;5013638;28;20178;-76
2021/10/30 12:59:38;;;;;;;3.85;2.78;;;;;;;;;;5019229;28;21303;-74
2021/10/30 13:02:04;;;;;;;3.35;3.00;;;;;;;;;;5010728;28;20202;-74
2021/10/30 13:04:30;;;;;;;3.25;2.95;;;;;;;;;;4995355;28;20680;-75
2021/10/30 13:07:00;;;;;;;3.53;2.60;;;;;;;;;;5012029;28;20166;-75
2021/10/30 13:09:26;;;;;;;3.03;2.72;;;;;;;;;;4993370;28;20718;-75
2021/10/30 13:11:51;;;;;;;2.33;2.13;;;;;;;;;;5011559;28;20190;-76
2021/10/30 13:14:16;;;;;;;2.55;2.35;;;;;;;;;;5010119;28;20182;-74
2021/10/30 13:16:41;;;;;;;3.15;2.67;;;;;;;;;;5024988;28;20186;-75
2021/10/30 13:19:06;;;;;;;2.90;2.33;;;;;;;;;;5007359;28;20186;-76
2021/10/30 13:21:32;;;;;;;5.00;2.42;;;;;;;;;;4996811;28;20198;-76
2021/10/30 13:23:58;;;;;;;2.70;2.42;;;;;;;;;;5011515;28;20186;-76
2021/10/30 13:26:24;;;;;;;3.20;2.35;;;;;;;;;;5010628;28;20187;-76
2021/10/30 13:28:49;;;;;;;4.25;2.50;;;;;;;;;;5015881;28;20722;-76
2021/10/30 13:31:15;;;;;;;3.03;2.65;;;;;;;;;;5011044;28;21852;-76
2021/10/30 13:33:40;;;;;;;4.13;2.38;;;;;;;;;;5009926;28;20205;-75
2021/10/30 13:36:05;;;;;;;2.33;2.13;;;;;;;;;;5011167;28;20206;-75
2021/10/30 13:38:30;;;;;;;3.17;1.90;;;;;;;;;;5013012;28;20170;-75
2021/10/30 13:40:57;;;;;;;2.15;1.95;;;;;;;;;;5018952;28;20199;-73
2021/10/30 13:43:22;;;;;;;2.20;2.00;;;;;;;;;;5011353;28;20202;-74
2021/10/30 13:45:47;;;;;;;2.50;2.28;;;;;;;;;;4994748;28;20174;-74
2021/10/30 13:48:12;;;;;;;1.75;1.60;;;;;;;;;;5014391;28;20671;-74
2021/10/30 13:50:37;;;;;;;1.83;1.58;;;;;;;;;;5010013;28;21014;-75
2021/10/30 13:53:03;;;;;;;4.07;2.40;;;;;;;;;;5011542;28;20183;-75
2021/10/30 13:55:28;;;;;;;2.00;1.75;;;;;;;;;;5010462;28;20796;-75
2021/10/30 13:57:53;;;;;;;1.90;1.50;;;;;;;;;;5010992;28;20190;-75
2021/10/30 14:00:18;;;;;;;2.00;1.80;;;;;;;;;;5012140;28;20201;-75
2021/10/30 14:02:44;;;;;;;2.08;1.83;;;;;;;;;;5012829;28;20210;-75
2021/10/30 14:05:10;;;;;;;2.60;1.67;;;;;;;;;;5009021;28;20705;-75
2021/10/30 14:07:35;;;;;;;1.42;1.33;;;;;;;;;;5010453;28;20186;-75
2021/10/30 14:10:00;;;;;;;2.60;2.05;;;;;;;;;;5009024;28;20210;-75
2021/10/30 14:12:26;;;;;;;2.25;1.92;;;;;;;;;;5013068;28;20190;-76
2021/10/30 14:14:51;;;;;;;2.05;1.48;;;;;;;;;;5010381;28;20186;-74
2021/10/30 14:17:16;;;;;;;3.20;1.73;;;;;;;;;;5013142;28;20197;-75
2021/10/30 14:19:42;;;;;;;4.60;2.15;;;;;;;;;;5014437;28;20210;-75
2021/10/30 14:22:08;;;;;;;1.73;1.38;;;;;;;;;;5048579;23;20881;-73
2021/10/30 14:24:33;;;;;;;2.10;1.85;;;;;;;;;;5008831;28;20173;-74
2021/10/30 14:26:58;;;;;;;3.63;1.75;;;;;;;;;;5027473;28;20182;-74
2021/10/30 14:29:24;;;;;;;2.35;1.60;;;;;;;;;;5023341;28;20224;-72
2021/10/30 14:31:52;;;;;;;1.65;1.55;;;;;;;;;;5011266;28;20209;-74